Portada
METAR-TAF:

METAR-TAF

Aeroports :

Wagga Wagga, Austràlia

latitud: 35-09S, longitud: 147-27E, altitud: 221 m

Observació

L'informe es va fer fa 28 minuts, a les 20:00 UTC
Vent 4 kt del Est
Temperatura 6°C
Humitat 93%
Pressió 1015 hPa
Visibilitat 10 km o més
Cel cobert a una alçada de 7300 ft

METAR: YSWG 162000Z AUTO 09004KT 9999 // OVC073 06/05 Q1015

Hora: 06:28 (20:28 UTC)


TAF: manca

Observacions i pronòstics meteorològics de més de 4000 aeroports (METAR i TAF).

Les estacions disponibles són els punts grocs i vermells al mapa.

Posi el ratolí al punt desitjat per veure el nom de l'estació.

Feu clic per veure les observacions i els pronòstics meteorològics.

Per canviar el mapa: feu clic els botons verds amb una creu de color negre per apropar; al botó verd amb un guió per allunyar la imatge; o en les fletxes verdes per a mapes adjacents.


METAR-TAF: